Time;durP1;ratioP1;P1;durP2;ratioP2;P2;SDS_P1;SDS_P2;PMS_P1;PMS_P2;Temp;Humidity;BMP_temperature;BMP_pressure;BME280_temperature;BME280_humidity;BME280_pressure;Samples;Min_cycle;Max_cycle;Signal;HPM_P1;HPM_P2
2021/09/27 00:02:05;;;;;;;31.50;20.25;;;;;;;14.25;75.71;98778.66;4951675;29;20035;-74
2021/09/27 00:04:31;;;;;;;32.90;20.75;;;;;;;14.20;75.86;98782.34;4933779;29;20027;-74
2021/09/27 00:06:56;;;;;;;31.08;20.15;;;;;;;14.19;75.75;98777.13;4949799;29;20562;-73
2021/09/27 00:09:23;;;;;;;31.55;21.05;;;;;;;14.18;76.04;98784.59;4949729;29;20031;-74
2021/09/27 00:11:48;;;;;;;29.90;19.77;;;;;;;14.14;75.88;98770.63;4950468;29;20031;-73
2021/09/27 00:14:14;;;;;;;30.45;19.83;;;;;;;14.09;75.89;98769.91;4949734;29;20035;-74
2021/09/27 00:16:40;;;;;;;30.67;20.33;;;;;;;14.01;76.00;98762.41;4950333;29;20070;-73
2021/09/27 00:19:05;;;;;;;29.13;19.33;;;;;;;13.97;75.95;98764.94;4950435;29;20114;-73
2021/09/27 00:21:34;;;;;;;29.58;19.05;;;;;;;13.93;76.30;98769.44;4950190;29;20519;-73
2021/09/27 00:24:01;;;;;;;34.13;20.75;;;;;;;13.93;76.21;98774.97;4949619;28;20027;-73
2021/09/27 00:26:28;;;;;;;31.40;20.10;;;;;;;13.91;76.26;98779.97;4948527;29;20019;-73
2021/09/27 00:28:53;;;;;;;33.13;21.35;;;;;;;13.88;76.32;98777.81;4950354;29;20020;-72
2021/09/27 00:31:19;;;;;;;32.53;20.88;;;;;;;13.82;76.28;98775.22;4950439;29;20038;-73
2021/09/27 00:33:45;;;;;;;33.55;21.33;;;;;;;13.81;76.78;98767.25;4950102;29;20020;-73
2021/09/27 00:36:10;;;;;;;33.15;21.02;;;;;;;13.83;76.37;98776.00;4950114;29;20035;-73
2021/09/27 00:38:36;;;;;;;32.42;20.98;;;;;;;13.78;76.67;98762.34;4950382;29;20484;-73
2021/09/27 00:41:05;;;;;;;32.20;20.25;;;;;;;13.77;76.62;98761.53;4949901;29;20027;-73
2021/09/27 00:43:34;;;;;;;34.95;22.08;;;;;;;13.73;76.92;98763.28;4950006;29;20042;-73
2021/09/27 00:46:03;;;;;;;33.97;22.00;;;;;;;13.72;76.73;98766.34;4949636;29;20038;-73
2021/09/27 00:48:30;;;;;;;32.60;19.63;;;;;;;13.73;76.79;98765.22;4932806;29;20034;-73
2021/09/27 00:51:00;;;;;;;33.00;20.10;;;;;;;13.71;77.06;98762.78;4950112;29;20027;-73
2021/09/27 00:53:37;;;;;;;34.90;20.08;;;;;;;13.67;76.71;98757.06;4949113;29;20038;-74
2021/09/27 00:56:05;;;;;;;32.15;19.92;;;;;;;13.64;77.46;98757.69;4949662;29;20027;-72
2021/09/27 00:58:32;;;;;;;34.05;21.98;;;;;;;13.64;77.65;98754.09;4932135;29;20081;-73
2021/09/27 01:00:58;;;;;;;32.45;20.67;;;;;;;13.63;78.08;98753.31;4949610;29;20054;-73
2021/09/27 01:03:26;;;;;;;30.90;19.42;;;;;;;13.64;77.96;98748.59;4932312;29;20070;-73
2021/09/27 01:06:20;;;;;;;33.20;20.80;;;;;;;13.63;78.61;98747.78;4949024;29;20082;-73
2021/09/27 01:09:27;;;;;;;32.92;21.05;;;;;;;13.70;78.45;98758.38;4949290;29;20227;-73
2021/09/27 01:12:14;;;;;;;32.88;20.92;;;;;;;13.80;78.35;98749.91;4918154;29;20033;-73
2021/09/27 01:15:01;;;;;;;36.42;21.73;;;;;;;13.87;78.42;98748.63;4949035;29;20039;-73
2021/09/27 01:17:51;;;;;;;30.73;20.90;;;;;;;13.88;78.52;98740.06;4949063;29;20506;-74
2021/09/27 01:20:22;;;;;;;35.15;20.67;;;;;;;13.90;78.60;98737.81;4949060;29;20031;-73
2021/09/27 01:23:12;;;;;;;35.42;22.48;;;;;;;13.91;78.59;98742.19;4932657;29;20035;-74
2021/09/27 01:25:49;;;;;;;38.78;23.10;;;;;;;13.91;79.00;98739.44;4949238;29;20031;-73
2021/09/27 01:28:52;;;;;;;35.92;22.17;;;;;;;13.93;79.21;98737.19;4931567;29;20098;-73
2021/09/27 01:31:44;;;;;;;37.35;22.15;;;;;;;13.97;79.36;98729.09;4949354;29;20023;-73
2021/09/27 01:34:18;;;;;;;38.20;22.50;;;;;;;13.98;79.23;98719.69;4945503;28;20043;-73
2021/09/27 01:37:00;;;;;;;37.58;22.42;;;;;;;14.02;79.18;98725.41;4952715;29;20023;-74
2021/09/27 01:39:56;;;;;;;41.80;25.58;;;;;;;14.11;79.52;98742.81;4952509;29;20059;-73
2021/09/27 01:42:35;;;;;;;40.45;24.02;;;;;;;14.21;79.73;98744.53;4952996;29;20063;-74
2021/09/27 01:45:05;;;;;;;38.65;23.45;;;;;;;14.29;79.42;98744.59;4952971;29;20373;-74
2021/09/27 01:47:39;;;;;;;41.35;24.02;;;;;;;14.33;79.11;98744.78;4935826;29;20031;-74
2021/09/27 01:50:10;;;;;;;40.60;23.75;;;;;;;14.38;79.17;98749.38;4953293;29;20081;-73
2021/09/27 01:52:59;;;;;;;45.40;24.58;;;;;;;14.38;79.02;98744.66;4953391;29;20019;-74
2021/09/27 01:55:40;;;;;;;43.73;25.50;;;;;;;14.37;78.84;98743.00;4952952;29;20090;-73
2021/09/27 01:58:45;;;;;;;42.60;25.08;;;;;;;14.36;78.78;98735.88;4935514;29;20427;-73
2021/09/27 02:01:21;;;;;;;44.70;25.08;;;;;;;14.31;78.57;98733.22;4949263;29;20423;-73
2021/09/27 02:04:01;;;;;;;44.08;24.50;;;;;;;14.29;78.58;98733.56;4952597;29;20031;-73
2021/09/27 02:06:32;;;;;;;43.83;24.15;;;;;;;14.28;79.04;98720.06;4953227;29;20050;-73
2021/09/27 02:09:05;;;;;;;48.42;26.52;;;;;;;14.26;78.94;98719.59;4952642;29;20043;-73
2021/09/27 02:11:37;;;;;;;46.35;25.42;;;;;;;14.24;79.09;98713.56;4935144;29;20023;-73
2021/09/27 02:14:21;;;;;;;44.70;24.33;;;;;;;14.23;78.80;98721.03;4935100;29;20023;-73
2021/09/27 02:17:06;;;;;;;45.75;26.40;;;;;;;14.20;79.33;98718.09;4935954;29;20066;-74
2021/09/27 02:19:57;;;;;;;45.38;24.98;;;;;;;14.19;79.32;98721.97;4950453;29;20075;-73
2021/09/27 02:22:45;;;;;;;46.75;27.42;;;;;;;14.23;79.40;98726.53;4952758;29;20126;-73
2021/09/27 02:25:13;;;;;;;45.00;25.02;;;;;;;14.24;79.37;98727.38;4942009;29;20066;-73
2021/09/27 02:27:39;;;;;;;34.75;21.08;;;;;;;14.28;79.26;98717.31;4953897;29;20035;-74
2021/09/27 02:30:08;;;;;;;46.95;26.45;;;;;;;14.29;79.54;98710.66;4953452;29;20031;-73
2021/09/27 02:32:41;;;;;;;48.33;26.65;;;;;;;14.35;79.36;98720.44;4953151;29;20039;-74
2021/09/27 02:35:14;;;;;;;42.90;24.48;;;;;;;14.39;79.25;98712.38;4933865;29;20045;-74
2021/09/27 02:38:02;;;;;;;43.42;25.08;;;;;;;14.38;79.16;98711.53;4953511;29;20086;-74
2021/09/27 02:40:45;;;;;;;45.40;24.95;;;;;;;14.31;78.82;98710.34;4953219;29;20027;-74
2021/09/27 02:43:12;;;;;;;43.53;25.85;;;;;;;14.27;79.10;98719.25;4952116;29;20031;-74
2021/09/27 02:45:39;;;;;;;46.45;24.90;;;;;;;14.24;79.37;98716.34;4952351;28;20032;-73
2021/09/27 02:48:17;;;;;;;39.92;23.17;;;;;;;14.23;79.44;98718.25;4952606;29;20074;-74
2021/09/27 02:50:50;;;;;;;44.60;24.35;;;;;;;14.20;79.25;98712.56;4952968;29;20055;-73
2021/09/27 02:53:17;;;;;;;35.55;21.08;;;;;;;14.17;79.20;98707.69;4953074;29;20043;-74
2021/09/27 02:56:04;;;;;;;41.13;23.88;;;;;;;14.12;79.63;98711.34;4953081;29;20427;-74
2021/09/27 02:58:54;;;;;;;42.75;23.45;;;;;;;14.12;79.38;98714.94;4933296;29;20027;-73
2021/09/27 03:01:47;;;;;;;42.08;22.75;;;;;;;14.12;79.51;98706.69;4952967;29;20038;-74
2021/09/27 03:04:52;;;;;;;46.67;24.58;;;;;;;14.10;79.35;98710.84;4951737;29;20047;-74
2021/09/27 03:07:30;;;;;;;45.58;24.73;;;;;;;14.08;79.61;98710.34;4952570;29;20051;-74
2021/09/27 03:10:16;;;;;;;42.45;23.20;;;;;;;14.05;79.67;98708.25;4949337;29;20043;-73
2021/09/27 03:12:51;;;;;;;46.33;25.90;;;;;;;14.05;79.91;98722.03;4951458;29;20043;-74
2021/09/27 03:15:35;;;;;;;44.78;24.15;;;;;;;14.08;79.77;98724.16;4952619;29;20135;-73
2021/09/27 03:18:20;;;;;;;47.42;24.48;;;;;;;14.05;80.30;98720.09;4952552;29;20062;-74
2021/09/27 03:20:55;;;;;;;42.33;23.50;;;;;;;14.08;80.38;98713.94;4952184;29;20039;-74
2021/09/27 03:23:45;;;;;;;39.70;22.17;;;;;;;14.09;80.15;98717.50;4952041;29;20027;-74
2021/09/27 03:26:33;;;;;;;41.58;22.95;;;;;;;14.10;79.98;98710.84;4951595;29;20467;-73
2021/09/27 03:29:11;;;;;;;42.80;22.17;;;;;;;14.11;80.06;98716.06;4951674;29;20025;-73
2021/09/27 03:31:52;;;;;;;43.22;23.75;;;;;;;14.12;80.37;98700.31;4934887;29;20122;-74
2021/09/27 03:34:46;;;;;;;46.53;25.15;;;;;;;14.17;80.47;98704.91;4952109;28;20062;-74
2021/09/27 03:37:21;;;;;;;40.33;22.83;;;;;;;14.18;79.78;98701.03;4949944;29;20062;-73
2021/09/27 03:39:49;;;;;;;44.97;24.88;;;;;;;14.11;80.17;98696.78;4952707;29;20043;-74
2021/09/27 03:42:24;;;;;;;44.25;24.40;;;;;;;14.13;80.32;98696.44;4953696;29;20435;-74
2021/09/27 03:44:55;;;;;;;44.60;24.38;;;;;;;14.09;80.20;98698.19;4952992;29;20391;-74
2021/09/27 03:47:27;;;;;;;44.63;24.23;;;;;;;14.09;80.31;98703.72;4953668;29;20038;-74
2021/09/27 03:50:08;;;;;;;43.08;23.92;;;;;;;14.12;80.67;98703.09;4951742;29;20027;-74
2021/09/27 03:52:41;;;;;;;37.75;22.30;;;;;;;14.19;81.21;98703.47;4936424;29;20035;-74
2021/09/27 03:55:26;;;;;;;40.28;21.73;;;;;;;14.18;80.44;98699.06;4935277;29;20043;-74
2021/09/27 03:58:01;;;;;;;41.45;22.30;;;;;;;14.18;80.54;98701.03;4952974;28;20034;-74
2021/09/27 04:00:34;;;;;;;40.70;22.02;;;;;;;14.22;80.74;98702.03;4949473;29;20067;-74
2021/09/27 04:03:26;;;;;;;40.63;22.25;;;;;;;14.26;80.63;98706.59;4951729;29;20069;-75
2021/09/27 04:06:10;;;;;;;43.00;22.25;;;;;;;14.33;80.60;98708.91;4948419;29;20322;-74
2021/09/27 04:08:56;;;;;;;38.75;20.92;;;;;;;14.34;80.44;98705.00;4952818;29;20130;-74
2021/09/27 04:11:27;;;;;;;38.42;21.73;;;;;;;14.37;80.81;98709.91;4952998;29;20043;-74
2021/09/27 04:14:12;;;;;;;33.75;18.75;;;;;;;14.35;80.12;98711.38;4935003;29;20448;-73
2021/09/27 04:16:56;;;;;;;37.58;20.35;;;;;;;14.32;80.54;98710.03;4953101;29;20081;-74
2021/09/27 04:19:45;;;;;;;37.90;21.38;;;;;;;14.34;80.53;98710.53;4952453;29;20027;-73
2021/09/27 04:22:24;;;;;;;42.58;21.65;;;;;;;14.36;80.23;98713.00;4952438;29;20035;-73
2021/09/27 04:25:10;;;;;;;35.50;19.38;;;;;;;14.31;79.93;98711.16;4949100;29;20106;-72
2021/09/27 04:27:58;;;;;;;36.95;19.90;;;;;;;14.25;80.26;98715.22;4950649;29;20029;-73
2021/09/27 04:31:01;;;;;;;40.42;21.35;;;;;;;14.25;80.52;98706.94;4952294;29;20078;-73
2021/09/27 04:33:45;;;;;;;37.30;19.85;;;;;;;14.21;80.09;98709.47;4860589;29;20101;-73
2021/09/27 04:36:13;;;;;;;38.72;21.98;;;;;;;14.13;80.65;98710.22;4927657;29;20479;-73
2021/09/27 04:38:39;;;;;;;40.13;22.27;;;;;;;14.13;80.36;98713.00;4953014;29;20472;-74
2021/09/27 04:41:29;;;;;;;39.75;21.33;;;;;;;14.18;80.41;98709.31;4953101;29;20031;-73
2021/09/27 04:43:57;;;;;;;40.40;21.27;;;;;;;14.19;80.35;98724.72;4951347;29;20475;-73
2021/09/27 04:46:35;;;;;;;39.58;21.65;;;;;;;14.24;80.62;98728.16;4949897;29;20146;-73
2021/09/27 04:49:25;;;;;;;39.58;21.23;;;;;;;14.29;80.71;98722.53;4952055;29;20511;-74
2021/09/27 04:52:18;;;;;;;39.88;21.35;;;;;;;14.33;80.55;98727.41;4952230;29;20720;-74
2021/09/27 04:55:07;;;;;;;38.10;20.27;;;;;;;14.29;80.36;98733.56;4951900;29;20035;-73
2021/09/27 04:57:42;;;;;;;37.40;20.20;;;;;;;14.26;80.11;98727.88;4952055;29;20039;-73
2021/09/27 05:00:27;;;;;;;38.90;19.80;;;;;;;14.25;80.23;98732.56;4952440;29;20086;-73
2021/09/27 05:03:07;;;;;;;33.13;18.48;;;;;;;14.26;80.11;98725.91;4950687;29;20407;-74
2021/09/27 05:05:50;;;;;;;39.40;20.02;;;;;;;14.25;80.30;98723.47;4951338;29;20035;-74
2021/09/27 05:08:30;;;;;;;34.85;18.15;;;;;;;14.27;80.45;98723.94;4949384;29;20043;-74
2021/09/27 05:11:05;;;;;;;37.75;19.92;;;;;;;14.26;80.27;98728.66;4950724;29;20055;-74
2021/09/27 05:14:12;;;;;;;42.22;20.92;;;;;;;14.29;80.66;98732.72;4951719;29;20024;-74
2021/09/27 05:16:46;;;;;;;35.90;17.95;;;;;;;14.34;80.21;98732.59;4898732;29;20043;-74
2021/09/27 05:19:38;;;;;;;42.17;20.42;;;;;;;14.37;80.46;98734.75;4951877;29;20039;-73
2021/09/27 05:22:25;;;;;;;38.13;19.88;;;;;;;14.43;80.47;98729.94;4951293;29;20082;-73
2021/09/27 05:25:03;;;;;;;40.90;20.52;;;;;;;14.43;80.59;98736.25;4949646;29;20438;-74
2021/09/27 05:27:37;;;;;;;40.65;20.48;;;;;;;14.46;80.77;98734.81;4949594;29;20062;-73
2021/09/27 05:30:22;;;;;;;43.33;21.95;;;;;;;14.52;80.26;98735.47;4951009;29;20517;-73
2021/09/27 05:32:59;;;;;;;42.53;21.30;;;;;;;14.52;80.60;98741.00;4950883;29;20598;-74
2021/09/27 05:35:53;;;;;;;39.88;20.70;;;;;;;14.59;80.19;98735.84;4950619;29;20027;-74
2021/09/27 05:38:40;;;;;;;36.92;19.85;;;;;;;14.64;80.15;98734.91;4946753;29;20050;-73
2021/09/27 05:41:19;;;;;;;40.28;21.60;;;;;;;14.58;80.71;98740.53;4951463;29;20031;-74
2021/09/27 05:43:51;;;;;;;39.22;20.05;;;;;;;14.61;80.44;98743.81;4950426;29;20069;-73
2021/09/27 05:46:42;;;;;;;38.50;20.83;;;;;;;14.64;80.34;98743.19;4950492;29;20506;-73
2021/09/27 05:49:24;;;;;;;36.00;19.30;;;;;;;14.69;80.61;98743.88;4929234;29;20117;-72
2021/09/27 05:51:54;;;;;;;38.88;20.27;;;;;;;14.76;80.69;98739.84;4951440;29;20027;-73
2021/09/27 05:54:30;;;;;;;38.20;20.73;;;;;;;14.81;80.26;98734.19;4950942;29;20043;-74
2021/09/27 05:57:09;;;;;;;35.85;19.25;;;;;;;14.79;80.38;98730.94;4951356;29;20479;-73
2021/09/27 06:00:07;;;;;;;23.75;13.45;;;;;;;14.72;79.94;98726.69;4951472;29;20403;-73
2021/09/27 06:03:00;;;;;;;157.00;73.75;;;;;;;14.67;79.92;98737.03;4907866;29;20047;-74
2021/09/27 06:05:31;;;;;;;54.90;29.10;;;;;;;14.59;80.27;98744.13;4950990;29;20033;-74
2021/09/27 06:08:18;;;;;;;35.95;20.00;;;;;;;14.52;80.21;98735.47;4950812;29;20118;-74
2021/09/27 06:10:53;;;;;;;57.40;25.25;;;;;;;14.48;80.27;98737.25;4949653;29;20517;-74
2021/09/27 06:13:28;;;;;;;110.57;35.05;;;;;;;14.44;80.33;98732.34;4951079;29;20019;-76
2021/09/27 06:16:00;;;;;;;67.82;25.30;;;;;;;14.45;80.41;98730.44;4951159;29;20118;-75
2021/09/27 06:18:35;;;;;;;98.55;35.78;;;;;;;14.45;80.39;98733.19;4951176;29;20020;-74
2021/09/27 06:21:18;;;;;;;47.22;22.45;;;;;;;14.44;80.44;98734.31;4951906;28;20092;-75
2021/09/27 06:24:13;;;;;;;94.72;48.70;;;;;;;14.47;81.16;98725.38;4953900;29;20043;-74
2021/09/27 06:26:45;;;;;;;81.15;49.20;;;;;;;14.57;80.99;98730.63;4872201;29;20057;-75
2021/09/27 06:29:17;;;;;;;39.70;24.98;;;;;;;14.68;81.11;98731.19;4954036;29;20077;-74
2021/09/27 06:31:49;;;;;;;35.05;20.05;;;;;;;14.78;81.21;98734.84;4953152;29;20027;-74
2021/09/27 06:34:27;;;;;;;35.53;18.77;;;;;;;14.83;81.06;98731.94;4952506;29;20031;-74
2021/09/27 06:36:57;;;;;;;33.27;18.80;;;;;;;14.87;81.04;98722.72;4952489;29;20054;-73
2021/09/27 06:39:27;;;;;;;35.08;18.75;;;;;;;14.94;80.67;98718.66;4954052;29;20114;-75
2021/09/27 06:41:53;;;;;;;30.35;16.98;;;;;;;14.99;80.72;98716.59;4936362;29;20027;-75
2021/09/27 06:44:21;;;;;;;38.10;19.23;;;;;;;14.95;80.62;98725.81;4952468;29;20035;-75
2021/09/27 06:46:47;;;;;;;37.60;18.65;;;;;;;14.89;80.67;98714.91;4951655;29;20046;-74
2021/09/27 06:49:13;;;;;;;39.45;20.27;;;;;;;14.89;80.55;98723.19;4953784;29;20054;-73
2021/09/27 06:51:42;;;;;;;37.28;19.30;;;;;;;14.89;80.52;98723.19;4953075;29;20062;-74
2021/09/27 06:54:09;;;;;;;37.97;19.53;;;;;;;14.89;80.54;98725.94;4935932;29;20034;-74
2021/09/27 06:56:36;;;;;;;37.67;19.75;;;;;;;14.91;80.34;98724.81;4953667;29;20805;-75
2021/09/27 06:59:01;;;;;;;36.58;19.70;;;;;;;14.96;81.13;98727.44;4953686;29;20019;-75
2021/09/27 07:01:27;;;;;;;36.83;19.95;;;;;;;15.00;80.44;98728.44;4952896;29;20038;-75
2021/09/27 07:03:52;;;;;;;37.90;20.45;;;;;;;15.02;80.56;98731.69;4951382;29;20057;-74
2021/09/27 07:06:18;;;;;;;41.47;20.95;;;;;;;15.03;80.16;98725.03;4935710;29;20415;-75
2021/09/27 07:08:43;;;;;;;39.25;20.05;;;;;;;15.00;80.51;98726.50;4952446;29;20499;-74
2021/09/27 07:11:12;;;;;;;42.45;20.50;;;;;;;15.02;80.26;98729.75;4952384;29;20031;-73
2021/09/27 07:13:38;;;;;;;39.28;21.00;;;;;;;15.08;80.30;98724.09;4953405;29;20326;-74
2021/09/27 07:16:04;;;;;;;39.97;19.95;;;;;;;15.07;80.03;98725.22;4949417;29;20082;-74
2021/09/27 07:18:29;;;;;;;44.08;21.48;;;;;;;15.08;80.22;98724.88;4952297;29;20558;-73
2021/09/27 07:20:58;;;;;;;40.10;19.98;;;;;;;15.14;80.51;98725.53;4952652;29;20041;-73
2021/09/27 07:23:23;;;;;;;44.87;21.83;;;;;;;15.19;80.60;98730.94;4953456;29;20115;-73
2021/09/27 07:25:49;;;;;;;40.60;20.52;;;;;;;15.23;80.63;98728.34;4953598;29;20102;-74
2021/09/27 07:28:14;;;;;;;45.53;22.65;;;;;;;15.26;80.30;98724.94;4954030;29;20475;-74
2021/09/27 07:30:40;;;;;;;41.85;22.25;;;;;;;15.26;80.37;98722.19;4953327;29;20035;-73
2021/09/27 07:33:06;;;;;;;47.55;24.05;;;;;;;15.27;80.25;98732.09;4952174;28;20055;-73
2021/09/27 07:35:32;;;;;;;40.55;20.05;;;;;;;15.29;79.95;98729.81;4948034;29;20031;-77
2021/09/27 07:37:58;;;;;;;44.85;22.60;;;;;;;15.24;79.83;98738.28;4950383;29;20027;-77
2021/09/27 07:40:28;;;;;;;43.80;21.67;;;;;;;15.20;80.32;98732.56;4949262;29;20030;-76
2021/09/27 07:42:53;;;;;;;44.08;21.50;;;;;;;15.16;80.11;98734.34;4952410;29;20011;-76
2021/09/27 07:45:21;;;;;;;36.45;20.08;;;;;;;15.22;80.57;98726.72;4951698;29;20114;-75
2021/09/27 07:47:47;;;;;;;41.13;20.48;;;;;;;15.24;80.48;98736.31;4951419;29;20113;-76
2021/09/27 07:50:13;;;;;;;47.83;23.25;;;;;;;15.27;80.49;98727.38;4949594;29;20446;-75
2021/09/27 07:52:39;;;;;;;47.33;23.08;;;;;;;15.39;80.15;98731.47;4934219;29;20031;-75
2021/09/27 07:55:06;;;;;;;52.08;24.80;;;;;;;15.50;80.57;98735.56;4951775;29;20059;-75
2021/09/27 07:57:32;;;;;;;50.13;25.05;;;;;;;15.61;80.73;98736.06;4948833;29;20079;-76
2021/09/27 07:59:58;;;;;;;43.97;22.75;;;;;;;15.70;80.33;98736.88;4952550;29;20031;-75
2021/09/27 08:02:30;;;;;;;48.58;24.30;;;;;;;15.79;80.29;98734.16;4950558;29;20039;-77
2021/09/27 08:04:57;;;;;;;46.92;24.10;;;;;;;15.87;80.08;98740.84;4951554;29;20081;-76
2021/09/27 08:07:23;;;;;;;46.10;22.85;;;;;;;15.91;79.60;98739.06;4951080;29;20054;-76
2021/09/27 08:09:49;;;;;;;49.25;25.77;;;;;;;15.92;79.81;98735.16;4950469;29;20034;-75
2021/09/27 08:12:16;;;;;;;48.80;23.88;;;;;;;15.90;79.42;98742.97;4932839;29;20039;-74
2021/09/27 08:14:41;;;;;;;49.65;25.60;;;;;;;15.92;79.49;98737.91;4948356;29;20491;-73
2021/09/27 08:17:07;;;;;;;50.35;25.20;;;;;;;15.97;79.77;98734.16;4952357;29;20078;-73
2021/09/27 08:19:33;;;;;;;53.47;26.65;;;;;;;16.05;79.85;98738.88;4934690;29;20448;-73
2021/09/27 08:21:58;;;;;;;49.03;25.13;;;;;;;16.16;79.60;98739.38;4935388;29;20038;-86
2021/09/27 08:24:24;;;;;;;50.90;25.20;;;;;;;16.22;79.47;98741.66;4950641;29;20082;-85
2021/09/27 08:26:49;;;;;;;51.13;25.75;;;;;;;16.29;79.56;98746.69;4950051;29;20043;-85
2021/09/27 08:29:16;;;;;;;41.13;21.50;;;;;;;16.38;79.63;98743.91;4949214;29;20487;-82
2021/09/27 08:31:42;;;;;;;47.58;23.67;;;;;;;16.39;79.08;98737.22;4950727;29;20118;-85
2021/09/27 08:34:08;;;;;;;52.25;24.02;;;;;;;16.33;78.84;98738.53;4949081;29;20035;-85
2021/09/27 08:36:34;;;;;;;54.80;26.88;;;;;;;16.30;79.04;98737.25;4933954;29;20031;-82
2021/09/27 08:39:00;;;;;;;52.33;25.17;;;;;;;16.35;78.95;98736.25;4949001;29;20114;-86
2021/09/27 08:41:45;;;;;;;53.72;26.85;;;;;;;16.35;78.90;98739.84;4949842;29;20027;-86
2021/09/27 08:44:20;;;;;;;53.55;26.63;;;;;;;16.36;78.80;98741.47;4932999;29;20046;-81
2021/09/27 08:46:51;;;;;;;52.65;26.83;;;;;;;16.43;78.66;98740.97;4950538;29;20038;-85
2021/09/27 08:49:22;;;;;;;49.75;25.98;;;;;;;16.50;78.43;98740.47;4950897;29;20074;-73
2021/09/27 08:51:49;;;;;;;48.53;26.00;;;;;;;16.60;78.58;98744.84;4951574;29;20101;-86
2021/09/27 08:54:21;;;;;;;45.15;24.83;;;;;;;16.70;78.51;98738.13;4949520;29;20090;-78
2021/09/27 08:56:59;;;;;;;46.55;24.42;;;;;;;16.82;78.39;98739.06;4950535;29;20062;-87
2021/09/27 08:59:33;;;;;;;47.42;25.15;;;;;;;16.95;78.63;98741.97;4949722;29;20027;-74
2021/09/27 09:02:05;;;;;;;47.92;24.80;;;;;;;17.05;78.10;98738.03;4931134;29;20073;-80
2021/09/27 09:04:38;;;;;;;45.45;24.50;;;;;;;17.10;77.83;98741.44;4949926;29;20031;-85
2021/09/27 09:07:08;;;;;;;47.75;26.17;;;;;;;17.15;77.85;98736.84;4949624;29;20062;-86
2021/09/27 09:09:54;;;;;;;47.47;26.00;;;;;;;17.12;77.39;98738.34;4949872;29;20034;-86
2021/09/27 09:12:34;;;;;;;46.13;24.90;;;;;;;17.05;77.29;98738.03;4949280;29;20042;-84
2021/09/27 09:15:12;;;;;;;45.47;24.23;;;;;;;17.03;76.77;98732.84;4948150;29;20027;-84
2021/09/27 09:17:40;;;;;;;45.20;25.10;;;;;;;17.06;76.93;98739.66;4931788;29;20035;-82
2021/09/27 09:20:14;;;;;;;45.15;25.38;;;;;;;17.07;77.19;98735.75;4950357;29;20031;-81
2021/09/27 09:22:42;;;;;;;50.85;27.60;;;;;;;17.11;76.76;98740.31;4951211;29;20039;-87
2021/09/27 09:25:20;;;;;;;50.42;27.45;;;;;;;17.17;76.95;98742.88;4949463;29;20062;-82
2021/09/27 09:27:46;;;;;;;43.65;24.52;;;;;;;17.29;77.14;98736.63;4951257;29;20492;-85
2021/09/27 09:30:12;;;;;;;59.13;31.52;;;;;;;17.38;76.92;98740.97;4950882;29;20023;-80
2021/09/27 09:32:38;;;;;;;53.42;30.33;;;;;;;17.39;76.76;98734.28;4948084;29;20055;-84
2021/09/27 09:35:27;;;;;;;52.17;28.40;;;;;;;17.50;76.63;98734.69;4950471;29;20035;-83
2021/09/27 09:38:09;;;;;;;;;;;;;;;17.55;76.43;98730.91;4951728;29;20031;-81
2021/09/27 09:40:56;;;;;;;51.33;30.98;;;;;;;17.58;76.22;98732.22;4950414;29;19949;-82
2021/09/27 09:43:34;;;;;;;50.95;30.30;;;;;;;17.67;76.26;98730.19;4948250;29;20117;-83
2021/09/27 09:46:13;;;;;;;51.65;28.85;;;;;;;17.82;76.38;98737.91;4950080;29;20035;-86
2021/09/27 09:48:58;;;;;;;52.25;32.33;;;;;;;17.89;75.86;98742.09;4950880;29;20039;-84
2021/09/27 09:51:33;;;;;;;49.92;31.67;;;;;;;17.89;75.63;98734.59;4950721;29;20070;-81
2021/09/27 09:54:21;;;;;;;51.60;28.85;;;;;;;17.93;75.53;98732.75;4934025;29;20039;-81
2021/09/27 09:57:15;;;;;;;43.65;26.35;;;;;;;17.92;75.27;98725.59;4951039;28;20530;-80
2021/09/27 09:59:44;;;;;;;45.85;27.30;;;;;;;17.92;75.12;98722.84;4954761;29;20027;-79
2021/09/27 10:02:21;;;;;;;41.17;25.17;;;;;;;17.88;75.08;98730.22;4954121;29;20038;-79
2021/09/27 10:05:04;;;;;;;39.28;24.35;;;;;;;17.89;74.95;98725.44;4935724;29;20408;-79
2021/09/27 10:07:46;;;;;;;43.47;25.77;;;;;;;17.85;74.48;98730.88;4951769;29;20571;-78
2021/09/27 10:10:33;;;;;;;45.78;27.55;;;;;;;17.79;74.51;98729.44;4952986;29;20031;-79
2021/09/27 10:13:04;;;;;;;43.90;25.27;;;;;;;17.83;74.65;98722.88;4937083;29;20031;-80
2021/09/27 10:15:41;;;;;;;50.53;29.95;;;;;;;17.90;74.69;98721.53;4951834;29;20031;-82
2021/09/27 10:18:22;;;;;;;41.28;25.10;;;;;;;17.99;74.79;98723.09;4952521;29;20027;-82
2021/09/27 10:21:16;;;;;;;44.75;27.17;;;;;;;18.01;74.62;98722.78;4934301;29;20089;-81
2021/09/27 10:23:48;;;;;;;42.25;24.52;;;;;;;18.05;74.53;98725.69;4952976;29;20034;-83
2021/09/27 10:26:32;;;;;;;42.67;26.38;;;;;;;18.11;74.58;98724.31;4935220;29;20019;-80
2021/09/27 10:29:21;;;;;;;43.30;27.00;;;;;;;18.23;74.66;98727.16;4950996;29;20089;-81
2021/09/27 10:32:09;;;;;;;;;;;;;;;18.33;74.36;98727.91;4943115;29;20446;-85
2021/09/27 10:34:35;;;;;;;42.17;26.08;;;;;;;18.37;74.20;98714.91;4951057;29;19922;-84
2021/09/27 10:37:11;;;;;;;47.53;28.38;;;;;;;18.43;74.38;98728.28;4952634;29;20538;-85
2021/09/27 10:39:37;;;;;;;46.17;28.35;;;;;;;18.53;73.93;98720.66;4952178;29;20027;-85
2021/09/27 10:42:05;;;;;;;48.42;28.98;;;;;;;18.58;73.77;98720.41;4952962;29;20031;-80
2021/09/27 10:44:50;;;;;;;47.83;28.95;;;;;;;18.69;73.93;98718.03;4952783;29;20031;-82
2021/09/27 10:47:27;;;;;;;47.60;29.15;;;;;;;18.88;73.67;98717.47;4952839;29;20024;-83
2021/09/27 10:50:10;;;;;;;48.13;28.48;;;;;;;19.04;73.29;98712.09;4952331;29;20065;-82
2021/09/27 10:52:54;;;;;;;43.38;27.38;;;;;;;19.21;73.14;98704.66;4952334;29;20050;-82
2021/09/27 10:55:25;;;;;;;40.78;26.52;;;;;;;19.27;72.46;98712.44;4952187;29;20031;-82
2021/09/27 10:57:56;;;;;;;41.70;27.35;;;;;;;19.29;72.11;98706.50;4947895;29;20074;-79
2021/09/27 11:00:50;;;;;;;42.22;26.88;;;;;;;19.54;72.46;98704.50;4951482;29;20031;-80
2021/09/27 11:03:24;;;;;;;41.95;26.67;;;;;;;19.70;71.32;98704.59;4949267;29;20732;-70
2021/09/27 11:06:18;;;;;;;45.05;28.35;;;;;;;19.90;71.70;98711.16;4951985;29;20043;-70
2021/09/27 11:08:54;;;;;;;41.92;26.23;;;;;;;20.14;71.45;98715.03;4886469;28;2015084;-69
2021/09/27 11:11:28;;;;;;;40.30;26.02;;;;;;;20.28;71.09;98716.59;4954824;29;20035;-68
2021/09/27 11:13:59;;;;;;;39.13;25.95;;;;;;;20.43;70.19;98718.63;4953322;29;20114;-68
2021/09/27 11:16:27;;;;;;;38.22;25.45;;;;;;;20.51;70.82;98714.88;4953171;29;20437;-69
2021/09/27 11:18:53;;;;;;;34.40;23.50;;;;;;;20.58;70.79;98711.44;4953228;29;20049;-72
2021/09/27 11:21:44;;;;;;;35.05;23.20;;;;;;;20.61;70.33;98709.91;4953481;29;20462;-72
2021/09/27 11:24:12;;;;;;;34.97;22.98;;;;;;;20.62;70.34;98706.78;4944427;29;20525;-70
2021/09/27 11:26:44;;;;;;;33.47;23.40;;;;;;;20.63;70.10;98694.47;4952038;29;20023;-70
2021/09/27 11:29:36;;;;;;;34.47;22.75;;;;;;;20.67;68.97;98700.13;4947571;29;20031;-70
2021/09/27 11:32:10;;;;;;;36.20;22.88;;;;;;;20.67;69.93;98689.81;4950764;29;20062;-70
2021/09/27 11:34:39;;;;;;;34.05;21.88;;;;;;;20.62;69.35;98692.03;4952678;29;20027;-70
2021/09/27 11:37:26;;;;;;;36.95;22.85;;;;;;;20.60;69.49;98683.22;4952937;29;20030;-70
2021/09/27 11:40:13;;;;;;;35.10;22.75;;;;;;;20.67;69.25;98686.19;4951984;29;20034;-70
2021/09/27 11:42:42;;;;;;;33.53;22.20;;;;;;;20.80;69.18;98681.38;4932728;29;20130;-70
2021/09/27 11:45:36;;;;;;;26.10;19.00;;;;;;;20.81;68.64;98672.66;4952652;29;20373;-69
2021/09/27 11:48:10;;;;;;;28.77;19.33;;;;;;;20.77;68.25;98680.13;4952557;29;20027;-70
2021/09/27 11:50:48;;;;;;;26.48;17.23;;;;;;;20.75;68.20;98667.69;4952521;29;20028;-70
2021/09/27 11:53:31;;;;;;;26.85;18.50;;;;;;;20.82;68.09;98660.34;4951998;29;20121;-70
2021/09/27 11:56:18;;;;;;;26.75;18.13;;;;;;;20.90;68.32;98666.91;4951680;29;20045;-70
2021/09/27 11:58:51;;;;;;;25.70;18.52;;;;;;;21.01;68.30;98664.38;4951644;29;20057;-71